createdAt,value
2018-12-17T00:00:05.319Z,1008.14
2018-12-17T00:01:05.333Z,1008.19
2018-12-17T00:02:05.340Z,1008.18
2018-12-17T00:03:05.345Z,1008.16
2018-12-17T00:04:05.494Z,1008.16
2018-12-17T00:05:05.523Z,1008.14
2018-12-17T00:06:05.381Z,1008.15
2018-12-17T00:07:05.390Z,1008.17
2018-12-17T00:08:05.396Z,1008.18
2018-12-17T00:09:05.410Z,1008.16
2018-12-17T00:10:05.436Z,1008.20
2018-12-17T00:11:05.424Z,1008.22
2018-12-17T00:12:05.436Z,1008.22
2018-12-17T00:13:05.445Z,1008.20
2018-12-17T00:14:05.466Z,1008.19
2018-12-17T00:15:05.466Z,1008.21
2018-12-17T00:16:05.546Z,1008.23
2018-12-17T00:17:05.487Z,1008.22
2018-12-17T00:18:05.494Z,1008.20
2018-12-17T00:19:05.529Z,1008.28
2018-12-17T00:20:05.530Z,1008.31
2018-12-17T00:21:05.527Z,1008.31
2018-12-17T00:22:05.541Z,1008.32
2018-12-17T00:23:05.543Z,1008.33
2018-12-17T00:24:05.557Z,1008.34
2018-12-17T00:25:05.567Z,1008.28
2018-12-17T00:26:05.574Z,1008.31
2018-12-17T00:27:05.582Z,1008.30
2018-12-17T00:28:08.324Z,1008.32
2018-12-17T00:29:05.618Z,1008.32
2018-12-17T00:30:05.612Z,1008.33
2018-12-17T00:31:05.620Z,1008.26
2018-12-17T00:32:05.636Z,1008.26
2018-12-17T00:33:05.644Z,1008.28
2018-12-17T00:34:05.656Z,1008.29
2018-12-17T00:35:05.659Z,1008.30
2018-12-17T00:36:05.673Z,1008.35
2018-12-17T00:37:05.678Z,1008.37
2018-12-17T00:38:05.696Z,1008.36
2018-12-17T00:39:05.704Z,1008.34
2018-12-17T00:40:05.712Z,1008.35
2018-12-17T00:41:05.721Z,1008.38
2018-12-17T00:42:05.735Z,1008.36
2018-12-17T00:43:05.739Z,1008.39
2018-12-17T00:44:05.747Z,1008.41
2018-12-17T00:45:05.771Z,1008.38
2018-12-17T00:46:05.772Z,1008.39
2018-12-17T00:47:05.778Z,1008.37
2018-12-17T00:48:05.795Z,1008.40
2018-12-17T00:49:05.804Z,1008.42
2018-12-17T00:50:05.809Z,1008.44
2018-12-17T00:51:05.818Z,1008.43
2018-12-17T00:52:05.828Z,1008.42
2018-12-17T00:53:05.835Z,1008.43
2018-12-17T00:54:05.844Z,1008.44
2018-12-17T00:55:05.858Z,1008.45
2018-12-17T00:56:05.867Z,1008.44
2018-12-17T00:57:05.896Z,1008.46
2018-12-17T00:58:05.899Z,1008.47
2018-12-17T00:59:05.902Z,1008.46
2018-12-17T01:00:05.905Z,1008.48
2018-12-17T01:01:05.913Z,1008.51
2018-12-17T01:02:05.927Z,1008.55
2018-12-17T01:03:06.291Z,1008.57
2018-12-17T01:04:05.950Z,1008.55
2018-12-17T01:05:05.958Z,1008.58
2018-12-17T01:06:05.963Z,1008.60
2018-12-17T01:07:06.005Z,1008.58
2018-12-17T01:08:05.994Z,1008.52
2018-12-17T01:09:06.091Z,1008.58
2018-12-17T01:10:06.116Z,1008.60
2018-12-17T01:11:06.013Z,1008.58
2018-12-17T01:12:06.027Z,1008.62
2018-12-17T01:13:06.034Z,1008.64
2018-12-17T01:14:06.055Z,1008.63
2018-12-17T01:15:06.052Z,1008.64
2018-12-17T01:16:06.068Z,1008.57
2018-12-17T01:17:06.072Z,1008.63
2018-12-17T01:18:06.080Z,1008.64
2018-12-17T01:19:06.084Z,1008.62
2018-12-17T01:20:06.093Z,1008.61
2018-12-17T01:21:06.106Z,1008.65
2018-12-17T01:22:06.118Z,1008.63
2018-12-17T01:23:06.121Z,1008.62
2018-12-17T01:24:06.335Z,1008.64
2018-12-17T01:25:06.141Z,1008.61
2018-12-17T01:26:06.157Z,1008.56
2018-12-17T01:27:06.162Z,1008.60
2018-12-17T01:28:06.171Z,1008.60
2018-12-17T01:29:06.186Z,1008.60
2018-12-17T01:30:06.193Z,1008.60
2018-12-17T01:31:06.198Z,1008.59
2018-12-17T01:32:06.220Z,1008.62
2018-12-17T01:33:06.221Z,1008.64
2018-12-17T01:34:06.230Z,1008.66
2018-12-17T01:35:06.238Z,1008.65
2018-12-17T01:36:06.249Z,1008.67
2018-12-17T01:37:06.756Z,1008.70
2018-12-17T01:38:06.269Z,1008.66
2018-12-17T01:39:06.283Z,1008.71
2018-12-17T01:40:06.288Z,1008.67
2018-12-17T01:41:06.304Z,1008.66
2018-12-17T01:42:06.324Z,1008.69
2018-12-17T01:43:06.322Z,1008.70
2018-12-17T01:44:06.326Z,1008.71
2018-12-17T01:45:06.340Z,1008.73
2018-12-17T01:46:06.349Z,1008.70
2018-12-17T01:47:06.355Z,1008.73
2018-12-17T01:48:06.369Z,1008.71
2018-12-17T01:49:06.379Z,1008.75
2018-12-17T01:50:06.390Z,1008.76
2018-12-17T01:51:06.399Z,1008.74
2018-12-17T01:52:06.405Z,1008.70
2018-12-17T01:53:06.418Z,1008.71
2018-12-17T01:54:06.425Z,1008.70
2018-12-17T01:55:06.439Z,1008.64
2018-12-17T01:56:06.458Z,1008.67
2018-12-17T01:57:06.460Z,1008.64
2018-12-17T01:58:06.492Z,1008.67
2018-12-17T01:59:06.476Z,1008.67
2018-12-17T02:00:06.485Z,1008.69
2018-12-17T02:01:06.496Z,1008.68
2018-12-17T02:02:06.507Z,1008.70
2018-12-17T02:03:06.515Z,1008.67
2018-12-17T02:04:06.527Z,1008.67
2018-12-17T02:05:06.534Z,1008.63
2018-12-17T02:06:06.547Z,1008.63
2018-12-17T02:07:06.558Z,1008.64
2018-12-17T02:08:06.564Z,1008.67
2018-12-17T02:09:06.575Z,1008.66
2018-12-17T02:10:06.589Z,1008.66
2018-12-17T02:11:06.751Z,1008.67
2018-12-17T02:12:06.627Z,1008.71
2018-12-17T02:13:06.614Z,1008.65
2018-12-17T02:14:06.624Z,1008.64
2018-12-17T02:15:06.634Z,1008.70
2018-12-17T02:16:06.641Z,1008.67
2018-12-17T02:17:06.652Z,1008.67
2018-12-17T02:18:06.665Z,1008.69
2018-12-17T02:19:06.670Z,1008.67
2018-12-17T02:20:06.682Z,1008.70
2018-12-17T02:21:06.691Z,1008.69
2018-12-17T02:22:06.701Z,1008.69
2018-12-17T02:23:06.711Z,1008.70
2018-12-17T02:24:06.719Z,1008.63
2018-12-17T02:25:06.733Z,1008.65
2018-12-17T02:26:06.743Z,1008.68
2018-12-17T02:27:06.750Z,1008.71
2018-12-17T02:28:06.759Z,1008.71
2018-12-17T02:29:06.769Z,1008.66
2018-12-17T02:30:06.794Z,1008.64
2018-12-17T02:31:06.790Z,1008.64
2018-12-17T02:32:06.797Z,1008.62
2018-12-17T02:33:06.905Z,1008.61
2018-12-17T02:34:06.821Z,1008.60
2018-12-17T02:35:06.823Z,1008.59
2018-12-17T02:36:06.841Z,1008.61
2018-12-17T02:37:06.845Z,1008.63
2018-12-17T02:38:06.860Z,1008.60
2018-12-17T02:39:06.869Z,1008.61
2018-12-17T02:40:06.875Z,1008.64
2018-12-17T02:41:06.886Z,1008.61
2018-12-17T02:42:06.897Z,1008.63
2018-12-17T02:43:06.906Z,1008.67
2018-12-17T02:44:06.912Z,1008.66
2018-12-17T02:45:06.928Z,1008.71
2018-12-17T02:46:06.954Z,1008.70
2018-12-17T02:47:06.946Z,1008.71
2018-12-17T02:48:06.954Z,1008.70
2018-12-17T02:49:06.965Z,1008.71
2018-12-17T02:50:06.971Z,1008.71
2018-12-17T02:51:06.986Z,1008.71
2018-12-17T02:52:06.991Z,1008.72
2018-12-17T02:53:07.004Z,1008.70
2018-12-17T02:54:07.012Z,1008.68
2018-12-17T02:55:07.153Z,1008.70
2018-12-17T02:56:07.033Z,1008.73
2018-12-17T02:57:07.042Z,1008.79
2018-12-17T02:58:07.057Z,1008.79
2018-12-17T02:59:07.066Z,1008.74
2018-12-17T03:00:07.076Z,1008.76
2018-12-17T03:01:07.081Z,1008.79
2018-12-17T03:02:07.472Z,1008.80
2018-12-17T03:03:07.102Z,1008.81
2018-12-17T03:04:07.112Z,1008.79
2018-12-17T03:05:07.122Z,1008.84
2018-12-17T03:06:07.133Z,1008.77
2018-12-17T03:07:07.141Z,1008.75
2018-12-17T03:08:07.152Z,1008.75
2018-12-17T03:09:07.161Z,1008.71
2018-12-17T03:10:07.172Z,1008.75
2018-12-17T03:11:07.185Z,1008.75
2018-12-17T03:12:07.192Z,1008.77
2018-12-17T03:13:07.207Z,1008.79
2018-12-17T03:14:07.213Z,1008.82
2018-12-17T03:15:07.232Z,1008.79
2018-12-17T03:16:07.313Z,1008.82
2018-12-17T03:17:07.246Z,1008.82
2018-12-17T03:18:07.253Z,1008.80
2018-12-17T03:19:07.259Z,1008.77
2018-12-17T03:20:07.269Z,1008.75
2018-12-17T03:21:07.283Z,1008.77
2018-12-17T03:22:07.292Z,1008.77
2018-12-17T03:23:07.303Z,1008.78
2018-12-17T03:24:07.311Z,1008.81
2018-12-17T03:25:07.320Z,1008.83
2018-12-17T03:26:07.332Z,1008.82
2018-12-17T03:27:07.340Z,1008.82
2018-12-17T03:28:07.349Z,1008.86
2018-12-17T03:29:07.359Z,1008.86
2018-12-17T03:30:07.373Z,1008.84
2018-12-17T03:31:07.488Z,1008.87
2018-12-17T03:32:07.418Z,1008.90
2018-12-17T03:33:07.401Z,1008.87
2018-12-17T03:34:07.410Z,1008.90
2018-12-17T03:35:07.420Z,1008.89
2018-12-17T03:36:07.431Z,1008.86
2018-12-17T03:37:07.439Z,1008.88
2018-12-17T03:38:07.449Z,1008.86
2018-12-17T03:39:07.459Z,1008.87
2018-12-17T03:40:07.471Z,1008.86
2018-12-17T03:41:07.479Z,1008.84
2018-12-17T03:42:07.491Z,1008.87
2018-12-17T03:43:07.496Z,1008.84
2018-12-17T03:44:07.506Z,1008.89
2018-12-17T03:45:07.522Z,1008.88
2018-12-17T03:46:07.532Z,1008.90
2018-12-17T03:47:07.537Z,1008.91
2018-12-17T03:48:07.557Z,1008.89
2018-12-17T03:49:07.557Z,1008.91
2018-12-17T03:50:07.568Z,1008.89
2018-12-17T03:51:07.586Z,1008.91
2018-12-17T03:52:07.588Z,1008.90
2018-12-17T03:53:07.599Z,1008.94
2018-12-17T03:54:07.662Z,1008.96
2018-12-17T03:55:07.622Z,1008.94
2018-12-17T03:56:07.634Z,1008.96
2018-12-17T03:57:07.638Z,1008.97
2018-12-17T03:58:07.647Z,1009.00
2018-12-17T03:59:07.654Z,1009.02
2018-12-17T04:00:07.664Z,1009.01
2018-12-17T04:01:07.676Z,1009.04
2018-12-17T04:02:07.687Z,1009.01
2018-12-17T04:03:07.692Z,1009.00
2018-12-17T04:04:07.703Z,1009.02
2018-12-17T04:05:07.719Z,1009.00
2018-12-17T04:06:07.723Z,1009.01
2018-12-17T04:07:07.744Z,1009.02
2018-12-17T04:08:07.742Z,1009.02
2018-12-17T04:09:07.754Z,1008.99
2018-12-17T04:10:07.767Z,1009.01
2018-12-17T04:11:07.770Z,1008.99
2018-12-17T04:12:07.792Z,1009.03
2018-12-17T04:13:07.795Z,1009.00
2018-12-17T04:14:07.802Z,1008.98
2018-12-17T04:15:07.815Z,1008.98
2018-12-17T04:16:07.823Z,1008.98
2018-12-17T04:17:07.833Z,1009.01
2018-12-17T04:18:07.844Z,1009.00
2018-12-17T04:19:07.865Z,1008.97
2018-12-17T04:20:07.862Z,1008.98
2018-12-17T04:21:07.872Z,1009.00
2018-12-17T04:22:07.884Z,1009.05
2018-12-17T04:23:07.890Z,1009.05
2018-12-17T04:24:07.902Z,1009.06
2018-12-17T04:25:07.911Z,1009.04
2018-12-17T04:26:07.921Z,1009.02
2018-12-17T04:27:07.928Z,1009.00
2018-12-17T04:28:07.937Z,1009.00
2018-12-17T04:29:07.951Z,1009.00
2018-12-17T04:30:07.975Z,1008.99
2018-12-17T04:31:07.969Z,1008.97
2018-12-17T04:32:07.995Z,1008.98
2018-12-17T04:33:07.992Z,1008.95
2018-12-17T04:34:07.999Z,1009.01
2018-12-17T04:36:08.017Z,1009.04
2018-12-17T04:37:08.031Z,1009.03
2018-12-17T04:38:08.039Z,1009.06
2018-12-17T04:39:08.050Z,1009.05
2018-12-17T04:40:08.060Z,1009.07
2018-12-17T04:41:08.068Z,1009.11
2018-12-17T04:42:08.084Z,1009.11
2018-12-17T04:43:08.089Z,1009.11
2018-12-17T04:44:08.100Z,1009.13
2018-12-17T04:45:08.116Z,1009.13
2018-12-17T04:46:08.121Z,1009.14
2018-12-17T04:47:08.132Z,1009.18
2018-12-17T04:48:08.180Z,1009.14
2018-12-17T04:49:08.154Z,1009.18
2018-12-17T04:50:08.164Z,1009.18
2018-12-17T04:51:08.169Z,1009.20
2018-12-17T04:52:08.179Z,1009.21
2018-12-17T04:53:08.191Z,1009.22
2018-12-17T04:54:08.202Z,1009.25
2018-12-17T04:55:08.208Z,1009.22
2018-12-17T04:56:08.220Z,1009.22
2018-12-17T04:57:08.231Z,1009.21
2018-12-17T04:58:08.244Z,1009.21
2018-12-17T04:59:14.607Z,1009.19
2018-12-17T05:00:08.255Z,1009.23
2018-12-17T05:01:08.273Z,1009.24
2018-12-17T05:02:08.278Z,1009.23
2018-12-17T05:03:08.292Z,1009.21
2018-12-17T05:04:08.299Z,1009.20
2018-12-17T05:05:08.311Z,1009.24
2018-12-17T05:06:08.316Z,1009.18
2018-12-17T05:07:08.326Z,1009.26
2018-12-17T05:08:08.368Z,1009.24
2018-12-17T05:09:08.350Z,1009.28
2018-12-17T05:10:08.369Z,1009.25
2018-12-17T05:11:08.365Z,1009.24
2018-12-17T05:12:08.379Z,1009.27
2018-12-17T05:13:08.383Z,1009.30
2018-12-17T05:14:08.394Z,1009.25
2018-12-17T05:15:08.406Z,1009.25
2018-12-17T05:16:08.414Z,1009.28
2018-12-17T05:17:08.429Z,1009.25
2018-12-17T05:18:08.438Z,1009.28
2018-12-17T05:19:08.443Z,1009.29
2018-12-17T05:20:08.452Z,1009.29
2018-12-17T05:21:08.465Z,1009.32
2018-12-17T05:22:08.473Z,1009.35
2018-12-17T05:23:08.482Z,1009.31
2018-12-17T05:24:08.508Z,1009.31
2018-12-17T05:25:08.502Z,1009.29
2018-12-17T05:26:08.511Z,1009.32
2018-12-17T05:27:08.524Z,1009.30
2018-12-17T05:28:08.530Z,1009.26
2018-12-17T05:29:08.544Z,1009.33
2018-12-17T05:30:08.553Z,1009.37
2018-12-17T05:31:08.561Z,1009.38
2018-12-17T05:32:08.593Z,1009.41
2018-12-17T05:33:08.585Z,1009.39
2018-12-17T05:34:08.596Z,1009.41
2018-12-17T05:35:08.599Z,1009.43
2018-12-17T05:36:08.614Z,1009.46
2018-12-17T05:37:08.621Z,1009.47
2018-12-17T05:38:08.631Z,1009.51
2018-12-17T05:39:08.639Z,1009.51
2018-12-17T05:40:08.654Z,1009.55
2018-12-17T05:41:08.665Z,1009.52
2018-12-17T05:42:08.670Z,1009.53
2018-12-17T05:43:08.682Z,1009.54
2018-12-17T05:44:08.891Z,1009.53
2018-12-17T05:45:08.700Z,1009.50
2018-12-17T05:46:08.717Z,1009.52
2018-12-17T05:47:08.720Z,1009.49
2018-12-17T05:48:08.732Z,1009.54
2018-12-17T05:49:08.742Z,1009.53
2018-12-17T05:50:08.752Z,1009.55
2018-12-17T05:51:08.760Z,1009.56
2018-12-17T05:52:08.768Z,1009.50
2018-12-17T05:53:08.788Z,1009.52
2018-12-17T05:54:08.790Z,1009.57
2018-12-17T05:55:08.803Z,1009.61
2018-12-17T05:56:08.821Z,1009.59
2018-12-17T05:57:08.831Z,1009.62
2018-12-17T05:58:08.830Z,1009.64
2018-12-17T05:59:08.850Z,1009.65
2018-12-17T06:00:08.848Z,1009.65
2018-12-17T06:01:08.858Z,1009.62
2018-12-17T06:02:08.868Z,1009.62
2018-12-17T06:03:08.903Z,1009.62
2018-12-17T06:04:08.890Z,1009.54
2018-12-17T06:05:08.899Z,1009.60
2018-12-17T06:06:08.910Z,1009.58
2018-12-17T06:07:08.916Z,1009.62
2018-12-17T06:08:08.930Z,1009.65
2018-12-17T06:09:08.937Z,1009.63
2018-12-17T06:10:08.950Z,1009.67
2018-12-17T06:11:08.961Z,1009.69
2018-12-17T06:12:08.980Z,1009.67
2018-12-17T06:13:08.981Z,1009.65
2018-12-17T06:14:08.990Z,1009.67
2018-12-17T06:15:08.996Z,1009.66
2018-12-17T06:16:09.005Z,1009.66
2018-12-17T06:17:09.016Z,1009.71
2018-12-17T06:18:09.027Z,1009.69
2018-12-17T06:19:09.035Z,1009.76
2018-12-17T06:20:09.054Z,1009.78
2018-12-17T06:21:09.058Z,1009.80
2018-12-17T06:22:09.102Z,1009.77
2018-12-17T06:23:09.094Z,1009.74
2018-12-17T06:24:09.088Z,1009.73
2018-12-17T06:25:09.102Z,1009.75
2018-12-17T06:26:09.114Z,1009.75
2018-12-17T06:27:09.117Z,1009.75
2018-12-17T06:28:09.129Z,1009.77
2018-12-17T06:29:09.137Z,1009.77
2018-12-17T06:30:09.164Z,1009.76
2018-12-17T06:31:09.168Z,1009.77
2018-12-17T06:32:09.167Z,1009.82
2018-12-17T06:33:15.502Z,1009.84
2018-12-17T06:34:09.188Z,1009.91
2018-12-17T06:36:09.206Z,1009.88
2018-12-17T06:37:09.224Z,1009.86
2018-12-17T06:38:09.330Z,1009.89
2018-12-17T06:39:09.238Z,1009.87
2018-12-17T06:40:10.367Z,1009.90
2018-12-17T06:41:09.255Z,1009.90
2018-12-17T06:42:09.264Z,1009.85
2018-12-17T06:43:09.277Z,1009.85
2018-12-17T06:44:09.287Z,1009.85
2018-12-17T06:45:09.297Z,1009.87
2018-12-17T06:46:09.310Z,1009.86
2018-12-17T06:47:09.320Z,1009.85
2018-12-17T06:48:09.330Z,1009.84
2018-12-17T06:49:09.337Z,1009.83
2018-12-17T06:50:09.348Z,1009.85
2018-12-17T06:51:09.361Z,1009.89
2018-12-17T06:52:09.369Z,1009.90
2018-12-17T06:53:09.385Z,1009.90
2018-12-17T06:54:09.390Z,1009.88
2018-12-17T06:55:09.403Z,1009.92
2018-12-17T06:56:09.408Z,1009.94
2018-12-17T06:57:09.417Z,1009.98
2018-12-17T06:58:09.423Z,1010.02
2018-12-17T06:59:09.436Z,1010.03
2018-12-17T07:00:09.455Z,1010.05
2018-12-17T07:01:09.458Z,1010.05
2018-12-17T07:02:09.473Z,1010.08
2018-12-17T07:03:09.483Z,1010.06
2018-12-17T07:04:09.490Z,1010.05
2018-12-17T07:05:09.504Z,1010.07
2018-12-17T07:06:09.524Z,1010.09
2018-12-17T07:07:09.549Z,1010.10
2018-12-17T07:08:09.528Z,1010.12
2018-12-17T07:09:09.536Z,1010.13
2018-12-17T07:10:09.548Z,1010.16
2018-12-17T07:11:09.563Z,1010.17
2018-12-17T07:12:09.565Z,1010.17
2018-12-17T07:13:09.575Z,1010.15
2018-12-17T07:14:09.588Z,1010.17
2018-12-17T07:15:09.744Z,1010.19
2018-12-17T07:16:09.606Z,1010.16
2018-12-17T07:17:09.618Z,1010.17
2018-12-17T07:18:09.843Z,1010.18
2018-12-17T07:19:09.637Z,1010.18
2018-12-17T07:20:09.758Z,1010.15
2018-12-17T07:21:09.657Z,1010.19
2018-12-17T07:22:09.667Z,1010.21
2018-12-17T07:23:09.675Z,1010.22
2018-12-17T07:24:09.699Z,1010.18
2018-12-17T07:25:09.695Z,1010.25
2018-12-17T07:26:09.710Z,1010.19
2018-12-17T07:27:09.716Z,1010.20
2018-12-17T07:28:09.731Z,1010.20
2018-12-17T07:29:09.739Z,1010.24
2018-12-17T07:30:09.749Z,1010.25
2018-12-17T07:31:09.768Z,1010.22
2018-12-17T07:32:09.766Z,1010.24
2018-12-17T07:33:09.896Z,1010.29
2018-12-17T07:34:09.785Z,1010.26
2018-12-17T07:35:09.798Z,1010.29
2018-12-17T07:36:09.805Z,1010.32
2018-12-17T07:37:09.818Z,1010.31
2018-12-17T07:38:09.832Z,1010.32
2018-12-17T07:39:09.846Z,1010.32
2018-12-17T07:40:09.849Z,1010.31
2018-12-17T07:41:09.864Z,1010.32
2018-12-17T07:42:09.869Z,1010.38
2018-12-17T07:43:09.984Z,1010.33
2018-12-17T07:44:09.889Z,1010.32
2018-12-17T07:45:09.907Z,1010.34
2018-12-17T07:46:09.913Z,1010.41
2018-12-17T07:47:09.919Z,1010.38
2018-12-17T07:48:09.950Z,1010.38
2018-12-17T07:49:09.937Z,1010.38
2018-12-17T07:50:09.947Z,1010.43
2018-12-17T07:51:09.974Z,1010.43
2018-12-17T07:52:09.968Z,1010.39
2018-12-17T07:53:09.985Z,1010.41
2018-12-17T07:54:09.994Z,1010.42
2018-12-17T07:55:09.991Z,1010.44
2018-12-17T07:56:10.015Z,1010.43
2018-12-17T07:57:10.216Z,1010.44
2018-12-17T07:58:10.023Z,1010.47
2018-12-17T07:59:10.086Z,1010.51
2018-12-17T08:00:10.054Z,1010.55
2018-12-17T08:01:10.054Z,1010.54
2018-12-17T08:02:10.066Z,1010.58
2018-12-17T08:03:10.074Z,1010.60
2018-12-17T08:04:10.087Z,1010.57
2018-12-17T08:05:10.094Z,1010.61
2018-12-17T08:06:10.101Z,1010.59
2018-12-17T08:07:10.312Z,1010.61
2018-12-17T08:08:10.125Z,1010.60
2018-12-17T08:09:10.134Z,1010.68
2018-12-17T08:10:10.142Z,1010.63
2018-12-17T08:11:10.154Z,1010.62
2018-12-17T08:12:10.164Z,1010.65
2018-12-17T08:13:10.173Z,1010.67
2018-12-17T08:14:10.383Z,1010.68
2018-12-17T08:15:10.396Z,1010.64
2018-12-17T08:16:10.204Z,1010.63
2018-12-17T08:17:10.213Z,1010.65
2018-12-17T08:18:10.231Z,1010.63
2018-12-17T08:19:10.236Z,1010.62
2018-12-17T08:20:10.263Z,1010.65
2018-12-17T08:21:10.256Z,1010.64
2018-12-17T08:22:10.264Z,1010.66
2018-12-17T08:23:10.277Z,1010.65
2018-12-17T08:24:10.285Z,1010.64
2018-12-17T08:25:10.301Z,1010.68
2018-12-17T08:26:10.305Z,1010.66
2018-12-17T08:27:10.324Z,1010.69
2018-12-17T08:28:11.255Z,1010.68
2018-12-17T08:29:11.344Z,1010.72
2018-12-17T08:30:11.478Z,1010.72
2018-12-17T08:31:11.659Z,1010.72
2018-12-17T08:32:11.237Z,1010.74
2018-12-17T08:33:10.518Z,1010.71
2018-12-17T08:34:10.428Z,1010.77
2018-12-17T08:35:10.396Z,1010.77
2018-12-17T08:36:10.404Z,1010.79
2018-12-17T08:37:10.433Z,1010.79
2018-12-17T08:38:10.453Z,1010.84
2018-12-17T08:39:10.438Z,1010.83
2018-12-17T08:40:10.448Z,1010.81
2018-12-17T08:41:10.456Z,1010.83
2018-12-17T08:42:10.467Z,1010.91
2018-12-17T08:43:10.493Z,1010.86
2018-12-17T08:44:10.493Z,1010.90
2018-12-17T08:45:10.576Z,1010.89
2018-12-17T08:46:10.515Z,1010.89
2018-12-17T08:47:10.520Z,1010.93
2018-12-17T08:48:10.571Z,1010.90
2018-12-17T08:49:10.551Z,1010.91
2018-12-17T08:50:10.564Z,1010.92
2018-12-17T08:51:10.569Z,1010.92
2018-12-17T08:52:10.570Z,1010.93
2018-12-17T08:53:10.589Z,1010.92
2018-12-17T08:54:10.594Z,1010.96
2018-12-17T08:55:10.655Z,1010.97
2018-12-17T08:57:10.624Z,1010.93
2018-12-17T08:58:10.648Z,1010.98
2018-12-17T08:59:10.643Z,1011.01
2018-12-17T09:00:11.139Z,1010.99
2018-12-17T09:01:10.723Z,1010.99
2018-12-17T09:02:10.778Z,1011.03
2018-12-17T09:03:10.958Z,1010.99
2018-12-17T09:04:10.694Z,1011.01
2018-12-17T09:05:10.775Z,1011.03
2018-12-17T09:06:10.717Z,1011.02
2018-12-17T09:07:10.731Z,1011.04
2018-12-17T09:08:10.816Z,1011.03
2018-12-17T09:09:10.745Z,1010.98
2018-12-17T09:10:10.774Z,1011.05
2018-12-17T09:11:10.779Z,1011.04
2018-12-17T09:12:10.779Z,1011.03
2018-12-17T09:13:10.788Z,1011.06
2018-12-17T09:14:10.800Z,1011.04
2018-12-17T09:15:10.813Z,1011.09
2018-12-17T09:16:11.024Z,1011.11
2018-12-17T09:17:10.828Z,1011.06
2018-12-17T09:18:10.877Z,1011.09
2018-12-17T09:19:11.611Z,1011.11
2018-12-17T09:20:10.860Z,1011.08
2018-12-17T09:21:10.877Z,1011.07
2018-12-17T09:22:10.886Z,1011.13
2018-12-17T09:23:10.921Z,1011.14
2018-12-17T09:24:10.912Z,1011.15
2018-12-17T09:25:10.916Z,1011.19
2018-12-17T09:26:10.927Z,1011.17
2018-12-17T09:27:10.947Z,1011.17
2018-12-17T09:28:10.965Z,1011.17
2018-12-17T09:29:10.958Z,1011.20
2018-12-17T09:30:18.056Z,1011.24
2018-12-17T09:31:10.978Z,1011.26
2018-12-17T09:32:10.991Z,1011.21
2018-12-17T09:33:11.005Z,1011.25
2018-12-17T09:34:11.009Z,1011.25
2018-12-17T09:35:11.023Z,1011.25
2018-12-17T09:36:11.031Z,1011.26
2018-12-17T09:37:11.046Z,1011.25
2018-12-17T09:38:11.064Z,1011.28
2018-12-17T09:39:11.068Z,1011.29
2018-12-17T09:40:11.078Z,1011.28
2018-12-17T09:41:11.088Z,1011.30
2018-12-17T09:42:11.102Z,1011.31
2018-12-17T09:43:11.108Z,1011.27
2018-12-17T09:44:11.134Z,1011.27
2018-12-17T09:45:11.130Z,1011.30
2018-12-17T09:46:11.338Z,1011.27
2018-12-17T09:47:11.333Z,1011.33
2018-12-17T09:48:11.166Z,1011.35
2018-12-17T09:49:11.174Z,1011.37
2018-12-17T09:50:12.406Z,1011.35
2018-12-17T09:51:11.195Z,1011.37
2018-12-17T09:52:11.239Z,1011.36
2018-12-17T09:53:12.468Z,1011.38
2018-12-17T09:54:11.335Z,1011.43
2018-12-17T09:55:11.238Z,1011.43
2018-12-17T09:56:11.246Z,1011.47
2018-12-17T09:57:11.304Z,1011.46
2018-12-17T09:58:11.264Z,1011.47
2018-12-17T09:59:11.281Z,1011.50
2018-12-17T10:00:11.286Z,1011.46
2018-12-17T10:01:11.301Z,1011.48
2018-12-17T10:02:11.328Z,1011.42
2018-12-17T10:03:11.332Z,1011.45
2018-12-17T10:04:11.327Z,1011.44
2018-12-17T10:05:11.344Z,1011.44
2018-12-17T10:06:11.352Z,1011.43
2018-12-17T10:07:11.359Z,1011.45
2018-12-17T10:08:11.371Z,1011.43
2018-12-17T10:09:11.397Z,1011.43
2018-12-17T10:10:11.396Z,1011.43
2018-12-17T10:11:11.402Z,1011.43
2018-12-17T10:12:11.444Z,1011.42
2018-12-17T10:13:11.434Z,1011.45
2018-12-17T10:14:11.435Z,1011.40
2018-12-17T10:15:11.464Z,1011.45
2018-12-17T10:16:11.464Z,1011.40
2018-12-17T10:17:11.472Z,1011.39
2018-12-17T10:18:11.490Z,1011.38
2018-12-17T10:19:11.493Z,1011.38
2018-12-17T10:20:11.903Z,1011.36
2018-12-17T10:21:11.512Z,1011.37
2018-12-17T10:22:11.740Z,1011.33
2018-12-17T10:23:11.541Z,1011.30
2018-12-17T10:24:11.550Z,1011.31
2018-12-17T10:25:11.722Z,1011.33
2018-12-17T10:26:11.675Z,1011.31
2018-12-17T10:27:12.910Z,1011.28
2018-12-17T10:28:11.591Z,1011.30
2018-12-17T10:30:11.609Z,1011.31
2018-12-17T10:31:11.672Z,1011.28
2018-12-17T10:32:11.632Z,1011.26
2018-12-17T10:34:12.400Z,1011.28
2018-12-17T10:35:11.763Z,1011.27
2018-12-17T10:36:12.844Z,1011.28
2018-12-17T10:37:11.690Z,1011.31
2018-12-17T10:38:11.745Z,1011.32
2018-12-17T10:39:11.713Z,1011.27
2018-12-17T10:40:11.721Z,1011.28
2018-12-17T10:41:11.727Z,1011.31
2018-12-17T10:42:11.737Z,1011.31
2018-12-17T10:43:11.847Z,1011.30
2018-12-17T10:44:12.338Z,1011.28
2018-12-17T10:45:11.778Z,1011.33
2018-12-17T10:46:12.359Z,1011.35
2018-12-17T10:47:11.797Z,1011.34
2018-12-17T10:48:11.956Z,1011.29
2018-12-17T10:49:11.815Z,1011.33
2018-12-17T10:50:12.314Z,1011.33
2018-12-17T10:51:11.893Z,1011.30
2018-12-17T10:52:11.922Z,1011.38
2018-12-17T10:53:11.983Z,1011.37
2018-12-17T10:54:11.867Z,1011.36
2018-12-17T10:55:11.878Z,1011.31
2018-12-17T10:56:11.890Z,1011.30
2018-12-17T10:57:11.901Z,1011.32
2018-12-17T10:58:11.911Z,1011.32
2018-12-17T10:59:11.925Z,1011.35
2018-12-17T11:00:11.929Z,1011.37
2018-12-17T11:01:11.940Z,1011.35
2018-12-17T11:02:11.973Z,1011.35
2018-12-17T11:03:11.965Z,1011.35
2018-12-17T11:04:11.974Z,1011.36
2018-12-17T11:05:11.988Z,1011.35
2018-12-17T11:06:12.000Z,1011.35
2018-12-17T11:07:12.011Z,1011.34
2018-12-17T11:08:12.020Z,1011.36
2018-12-17T11:09:12.035Z,1011.36
2018-12-17T11:10:12.044Z,1011.38
2018-12-17T11:11:12.055Z,1011.43
2018-12-17T11:12:12.065Z,1011.38
2018-12-17T11:13:12.079Z,1011.39
2018-12-17T11:14:12.092Z,1011.37
2018-12-17T11:15:12.095Z,1011.36
2018-12-17T11:16:12.113Z,1011.38
2018-12-17T11:17:12.120Z,1011.35
2018-12-17T11:18:12.133Z,1011.38
2018-12-17T11:19:12.138Z,1011.38
2018-12-17T11:20:12.154Z,1011.36
2018-12-17T11:21:12.164Z,1011.38
2018-12-17T11:22:12.178Z,1011.39
2018-12-17T11:23:12.183Z,1011.38
2018-12-17T11:24:12.194Z,1011.39
2018-12-17T11:25:12.208Z,1011.39
2018-12-17T11:26:12.232Z,1011.36
2018-12-17T11:27:12.255Z,1011.37
2018-12-17T11:28:12.241Z,1011.39
2018-12-17T11:29:12.255Z,1011.38
2018-12-17T11:30:12.980Z,1011.38
2018-12-17T11:31:12.278Z,1011.38
2018-12-17T11:32:12.285Z,1011.38
2018-12-17T11:33:12.293Z,1011.38
2018-12-17T11:34:12.311Z,1011.31
2018-12-17T11:35:12.329Z,1011.32
2018-12-17T11:36:12.331Z,1011.33
2018-12-17T11:37:12.348Z,1011.31
2018-12-17T11:38:12.605Z,1011.36
2018-12-17T11:39:12.371Z,1011.39
2018-12-17T11:40:12.372Z,1011.35
2018-12-17T11:41:12.383Z,1011.39
2018-12-17T11:42:12.398Z,1011.35
2018-12-17T11:43:12.405Z,1011.34
2018-12-17T11:44:12.416Z,1011.35
2018-12-17T11:45:12.428Z,1011.35
2018-12-17T11:46:12.451Z,1011.32
2018-12-17T11:47:12.452Z,1011.35
2018-12-17T11:48:12.464Z,1011.35
2018-12-17T11:49:12.475Z,1011.28
2018-12-17T11:50:12.483Z,1011.38
2018-12-17T11:51:12.496Z,1011.39
2018-12-17T11:52:12.509Z,1011.38
2018-12-17T11:53:12.524Z,1011.39
2018-12-17T11:54:12.538Z,1011.36
2018-12-17T11:55:12.586Z,1011.36
2018-12-17T11:56:12.550Z,1011.35
2018-12-17T11:57:12.566Z,1011.38
2018-12-17T11:58:12.597Z,1011.40
2018-12-17T11:59:12.582Z,1011.39
2018-12-17T12:00:12.604Z,1011.39
2018-12-17T12:01:12.607Z,1011.39
2018-12-17T12:02:12.619Z,1011.44
2018-12-17T12:03:12.629Z,1011.40
2018-12-17T12:04:13.435Z,1011.39
2018-12-17T12:05:12.654Z,1011.40
2018-12-17T12:06:14.185Z,1011.40
2018-12-17T12:07:12.679Z,1011.44
2018-12-17T12:08:12.686Z,1011.47
2018-12-17T12:09:12.699Z,1011.45
2018-12-17T12:10:12.709Z,1011.48